createdAt,value
2022-09-22T00:00:57.494Z,6.68
2022-09-22T00:03:24.281Z,6.64
2022-09-22T00:06:00.360Z,6.57
2022-09-22T00:08:28.394Z,6.55
2022-09-22T00:11:00.809Z,6.56
2022-09-22T00:13:27.346Z,6.58
2022-09-22T00:15:53.768Z,6.59
2022-09-22T00:18:20.204Z,6.60
2022-09-22T00:20:46.625Z,6.60
2022-09-22T00:23:13.065Z,6.59
2022-09-22T00:25:40.265Z,6.57
2022-09-22T00:28:07.037Z,6.56
2022-09-22T00:30:33.455Z,6.57
2022-09-22T00:33:00.062Z,6.51
2022-09-22T00:35:26.420Z,6.50
2022-09-22T00:37:52.781Z,6.45
2022-09-22T00:40:19.223Z,6.41
2022-09-22T00:42:45.673Z,6.40
2022-09-22T00:45:12.388Z,6.36
2022-09-22T00:47:46.286Z,6.31
2022-09-22T00:50:15.730Z,6.25
2022-09-22T00:52:54.038Z,6.24
2022-09-22T00:55:48.018Z,6.20
2022-09-22T00:58:18.152Z,6.16
2022-09-22T01:00:45.208Z,6.16
2022-09-22T01:03:16.584Z,6.18
2022-09-22T01:05:45.171Z,6.15
2022-09-22T01:08:13.468Z,6.10
2022-09-22T01:10:40.064Z,6.05
2022-09-22T01:13:20.607Z,6.03
2022-09-22T01:16:11.620Z,6.06
2022-09-22T01:19:17.055Z,6.07
2022-09-22T01:21:51.651Z,6.05
2022-09-22T01:24:18.095Z,6.06
2022-09-22T01:27:24.943Z,6.04
2022-09-22T01:30:34.832Z,6.04
2022-09-22T01:33:09.872Z,6.05
2022-09-22T01:36:04.113Z,6.09
2022-09-22T01:38:33.841Z,6.09
2022-09-22T01:41:08.299Z,6.10
2022-09-22T01:43:49.334Z,6.10
2022-09-22T01:46:39.122Z,6.09
2022-09-22T01:49:09.913Z,6.08
2022-09-22T01:51:48.885Z,6.05
2022-09-22T01:54:21.131Z,6.02
2022-09-22T01:56:54.698Z,6.02
2022-09-22T01:59:25.497Z,6.01
2022-09-22T02:02:01.915Z,5.97
2022-09-22T02:04:38.505Z,5.99
2022-09-22T02:07:12.625Z,5.99
2022-09-22T02:09:42.383Z,5.98
2022-09-22T02:12:09.003Z,5.96
2022-09-22T02:14:35.437Z,6.02
2022-09-22T02:17:02.553Z,6.06
2022-09-22T02:19:40.493Z,6.07
2022-09-22T02:22:09.105Z,6.10
2022-09-22T02:24:38.087Z,6.10
2022-09-22T02:27:14.939Z,6.06
2022-09-22T02:29:46.606Z,6.06
2022-09-22T02:32:16.532Z,6.03
2022-09-22T02:34:45.732Z,5.98
2022-09-22T02:37:36.182Z,6.00
2022-09-22T02:40:26.818Z,5.99
2022-09-22T02:43:03.881Z,5.98
2022-09-22T02:45:43.925Z,5.97
2022-09-22T02:48:18.168Z,5.93
2022-09-22T02:50:45.405Z,5.87
2022-09-22T02:53:15.244Z,5.84
2022-09-22T02:55:42.689Z,5.80
2022-09-22T02:58:09.888Z,5.78
2022-09-22T03:00:37.126Z,5.77
2022-09-22T03:03:04.357Z,5.72
2022-09-22T03:05:30.781Z,5.68
2022-09-22T03:07:57.717Z,5.66
2022-09-22T03:10:24.140Z,5.66
2022-09-22T03:13:14.864Z,5.63
2022-09-22T03:15:36.934Z,5.61
2022-09-22T03:18:04.242Z,5.62
2022-09-22T03:20:31.572Z,5.61
2022-09-22T03:22:58.180Z,5.64
2022-09-22T03:25:24.734Z,5.63
2022-09-22T03:27:51.093Z,5.66
2022-09-22T03:30:17.582Z,5.65
2022-09-22T03:32:44.083Z,5.65
2022-09-22T03:35:10.529Z,5.65
2022-09-22T03:37:36.929Z,5.63
2022-09-22T03:40:04.686Z,5.61
2022-09-22T03:42:32.827Z,5.63
2022-09-22T03:44:59.312Z,5.62
2022-09-22T03:47:25.732Z,5.63
2022-09-22T03:49:52.141Z,5.63
2022-09-22T03:52:18.505Z,5.61
2022-09-22T03:54:44.901Z,5.74
2022-09-22T03:57:11.505Z,5.78
2022-09-22T03:59:37.984Z,5.81
2022-09-22T04:02:04.590Z,5.94
2022-09-22T04:04:31.110Z,6.04
2022-09-22T04:06:57.569Z,6.02
2022-09-22T04:09:24.081Z,6.01
2022-09-22T04:11:50.595Z,6.07
2022-09-22T04:14:16.962Z,6.02
2022-09-22T04:16:43.790Z,6.00
2022-09-22T04:19:10.332Z,5.99
2022-09-22T04:21:36.738Z,6.00
2022-09-22T04:24:03.420Z,6.00
2022-09-22T04:26:29.863Z,6.00
2022-09-22T04:28:56.233Z,6.00
2022-09-22T04:31:23.013Z,5.98
2022-09-22T04:33:49.479Z,5.98
2022-09-22T04:36:15.970Z,5.92
2022-09-22T04:38:42.371Z,5.92
2022-09-22T04:41:08.784Z,5.93
2022-09-22T04:43:35.141Z,5.97
2022-09-22T04:46:01.767Z,6.05
2022-09-22T04:48:28.665Z,6.10
2022-09-22T04:50:55.061Z,6.14
2022-09-22T04:53:21.439Z,6.13
2022-09-22T04:55:49.671Z,6.13
2022-09-22T04:58:16.255Z,6.15
2022-09-22T05:00:42.829Z,6.11
2022-09-22T05:03:11.200Z,6.05
2022-09-22T05:05:38.110Z,6.02
2022-09-22T05:08:05.132Z,6.04
2022-09-22T05:10:34.317Z,6.06
2022-09-22T05:13:00.963Z,6.07
2022-09-22T05:15:30.399Z,6.06
2022-09-22T05:17:56.968Z,6.10
2022-09-22T05:20:23.539Z,6.11
2022-09-22T05:22:50.140Z,6.11
2022-09-22T05:25:18.640Z,6.08
2022-09-22T05:27:50.186Z,6.07
2022-09-22T05:30:17.316Z,6.06
2022-09-22T05:32:45.778Z,6.06
2022-09-22T05:35:13.669Z,6.07
2022-09-22T05:37:43.653Z,6.13
2022-09-22T05:40:11.163Z,6.14
2022-09-22T05:42:43.667Z,6.14
2022-09-22T05:45:10.666Z,6.16
2022-09-22T05:47:37.940Z,6.20
2022-09-22T05:50:04.970Z,6.23
2022-09-22T05:52:31.860Z,6.28
2022-09-22T05:54:58.333Z,6.35
2022-09-22T05:57:27.652Z,6.39
2022-09-22T05:59:54.875Z,6.44
2022-09-22T06:02:26.176Z,6.50
2022-09-22T06:04:53.430Z,6.56
2022-09-22T06:07:20.667Z,6.68
2022-09-22T06:09:48.394Z,6.76
2022-09-22T06:12:15.599Z,6.82
2022-09-22T06:14:42.012Z,6.95
2022-09-22T06:17:11.816Z,7.03
2022-09-22T06:19:39.170Z,7.16
2022-09-22T06:22:05.634Z,7.46
2022-09-22T06:24:32.295Z,7.67
2022-09-22T06:26:58.708Z,7.65
2022-09-22T06:29:25.934Z,7.69
2022-09-22T06:31:52.606Z,7.76
2022-09-22T06:34:19.235Z,7.86
2022-09-22T06:36:45.593Z,7.97
2022-09-22T06:39:13.094Z,8.07
2022-09-22T06:41:39.759Z,8.21
2022-09-22T06:44:06.789Z,8.34
2022-09-22T06:46:38.120Z,8.45
2022-09-22T06:49:04.581Z,8.72
2022-09-22T06:51:33.648Z,9.09
2022-09-22T06:54:04.076Z,9.29
2022-09-22T06:56:39.789Z,9.58
2022-09-22T06:59:12.780Z,9.82
2022-09-22T07:01:43.400Z,9.99
2022-09-22T07:04:10.925Z,10.17
2022-09-22T07:06:37.390Z,9.94
2022-09-22T07:09:04.777Z,9.81
2022-09-22T07:11:31.339Z,9.87
2022-09-22T07:13:58.747Z,9.98
2022-09-22T07:16:26.707Z,10.10
2022-09-22T07:18:55.891Z,10.33
2022-09-22T07:21:27.504Z,10.83
2022-09-22T07:23:55.720Z,10.92
2022-09-22T07:26:29.707Z,10.93
2022-09-22T07:28:59.072Z,11.01
2022-09-22T07:31:29.725Z,11.19
2022-09-22T07:33:58.930Z,11.48
2022-09-22T07:36:26.550Z,11.81
2022-09-22T07:38:57.599Z,12.12
2022-09-22T07:41:29.954Z,12.42
2022-09-22T07:44:21.733Z,12.76
2022-09-22T07:46:48.477Z,12.90
2022-09-22T07:49:15.308Z,13.08
2022-09-22T07:51:42.094Z,13.16
2022-09-22T07:54:08.885Z,13.28
2022-09-22T07:56:45.276Z,13.90
2022-09-22T07:59:14.100Z,14.24
2022-09-22T08:01:44.152Z,14.18
2022-09-22T08:04:12.421Z,14.00
2022-09-22T08:06:38.975Z,13.93
2022-09-22T08:09:08.193Z,13.87
2022-09-22T08:11:34.663Z,13.97
2022-09-22T08:14:02.769Z,14.00
2022-09-22T08:16:33.914Z,14.23
2022-09-22T08:19:10.678Z,14.06
2022-09-22T08:21:47.763Z,14.13
2022-09-22T08:24:16.250Z,14.33
2022-09-22T08:26:48.375Z,14.41
2022-09-22T08:29:15.506Z,14.60
2022-09-22T08:31:42.309Z,14.60
2022-09-22T08:34:09.340Z,14.76
2022-09-22T08:36:37.134Z,14.95
2022-09-22T08:39:05.057Z,14.99
2022-09-22T08:41:38.336Z,15.18
2022-09-22T08:44:08.711Z,15.32
2022-09-22T08:46:38.231Z,15.43
2022-09-22T08:49:33.856Z,15.31
2022-09-22T08:52:06.014Z,15.43
2022-09-22T08:54:32.986Z,15.52
2022-09-22T08:57:41.037Z,15.43
2022-09-22T09:00:10.354Z,15.57
2022-09-22T09:02:49.274Z,15.78
2022-09-22T09:05:42.346Z,15.84
2022-09-22T09:08:36.722Z,15.65
2022-09-22T09:11:19.281Z,15.73
2022-09-22T09:14:07.438Z,16.01
2022-09-22T09:16:48.871Z,16.18
2022-09-22T09:19:37.800Z,16.34
2022-09-22T09:22:18.923Z,16.36
2022-09-22T09:27:40.786Z,16.35
2022-09-22T09:30:11.873Z,16.53
2022-09-22T09:32:52.878Z,16.67
2022-09-22T09:35:46.045Z,16.56
2022-09-22T09:38:18.808Z,16.57
2022-09-22T09:40:54.202Z,16.44
2022-09-22T09:43:24.007Z,16.65
2022-09-22T09:46:11.591Z,16.84
2022-09-22T09:48:52.917Z,16.72
2022-09-22T09:51:19.963Z,16.98
2022-09-22T09:53:49.543Z,16.84
2022-09-22T09:56:21.833Z,16.99
2022-09-22T09:59:45.029Z,17.08
2022-09-22T10:02:14.780Z,17.15
2022-09-22T10:04:48.324Z,17.31
2022-09-22T10:07:21.452Z,17.48
2022-09-22T10:09:49.953Z,17.34
2022-09-22T10:12:34.409Z,17.35
2022-09-22T10:15:01.761Z,17.26
2022-09-22T10:17:28.367Z,17.01
2022-09-22T10:20:16.274Z,17.00
2022-09-22T10:22:42.714Z,17.31
2022-09-22T10:25:19.400Z,17.17
2022-09-22T10:28:09.265Z,17.41
2022-09-22T10:30:37.400Z,17.63
2022-09-22T10:33:11.706Z,17.76
2022-09-22T10:35:39.084Z,17.67
2022-09-22T10:38:14.217Z,17.56
2022-09-22T10:40:44.628Z,17.77
2022-09-22T10:43:26.571Z,17.67
2022-09-22T10:46:07.454Z,17.92
2022-09-22T10:48:43.992Z,18.22
2022-09-22T10:51:34.867Z,18.28
2022-09-22T10:54:43.493Z,18.23
2022-09-22T10:57:31.907Z,18.29
2022-09-22T11:00:19.099Z,18.09
2022-09-22T11:03:16.630Z,18.26
2022-09-22T11:06:20.535Z,18.31
2022-09-22T11:09:45.264Z,18.49
2022-09-22T11:12:36.042Z,18.39
2022-09-22T11:15:30.694Z,18.46
2022-09-22T11:18:03.549Z,18.37
2022-09-22T11:20:38.584Z,18.55
2022-09-22T11:23:43.556Z,18.64
2022-09-22T11:26:15.801Z,18.65
2022-09-22T11:29:00.249Z,18.63
2022-09-22T11:31:51.826Z,18.61
2022-09-22T11:34:35.491Z,18.92
2022-09-22T11:37:38.137Z,19.08
2022-09-22T11:40:27.060Z,19.19
2022-09-22T11:43:04.722Z,19.23
2022-09-22T11:45:43.719Z,19.41
2022-09-22T11:48:26.116Z,19.55
2022-09-22T11:51:14.248Z,19.68
2022-09-22T11:53:53.375Z,19.82
2022-09-22T11:56:44.297Z,20.23
2022-09-22T11:59:26.026Z,20.23
2022-09-22T12:01:55.506Z,20.35
2022-09-22T12:04:54.940Z,20.30
2022-09-22T12:07:29.875Z,20.64
2022-09-22T12:10:06.522Z,20.36
2022-09-22T12:12:34.152Z,20.52
2022-09-22T12:15:15.909Z,20.53
2022-09-22T12:18:22.120Z,20.89
2022-09-22T12:21:02.420Z,21.07
2022-09-22T12:23:47.586Z,21.18
2022-09-22T12:26:31.414Z,21.35
2022-09-22T12:28:59.560Z,21.12
2022-09-22T12:31:37.795Z,21.39
2022-09-22T12:34:14.769Z,21.35
2022-09-22T12:36:42.016Z,21.41
2022-09-22T12:39:13.450Z,21.47
2022-09-22T12:41:47.977Z,21.63
2022-09-22T12:44:43.206Z,21.52
2022-09-22T12:47:24.790Z,21.38
2022-09-22T12:49:56.560Z,21.91
2022-09-22T12:52:41.028Z,21.98
2022-09-22T12:55:27.865Z,22.07
2022-09-22T12:57:59.812Z,22.33
2022-09-22T13:00:41.051Z,22.33
2022-09-22T13:03:25.663Z,21.78
2022-09-22T13:05:55.279Z,22.05
2022-09-22T13:08:24.650Z,22.06
2022-09-22T13:11:00.025Z,22.46
2022-09-22T13:13:32.136Z,22.13
2022-09-22T13:16:01.582Z,22.67
2022-09-22T13:18:41.668Z,23.42
2022-09-22T13:21:14.222Z,24.01
2022-09-22T13:23:58.926Z,24.21
2022-09-22T13:26:30.081Z,22.97
2022-09-22T13:29:12.429Z,23.10
2022-09-22T13:31:54.239Z,23.34
2022-09-22T13:34:25.773Z,22.50
2022-09-22T13:36:56.808Z,21.61
2022-09-22T13:39:25.585Z,20.76
2022-09-22T13:41:57.303Z,21.88
2022-09-22T13:44:29.300Z,21.99
2022-09-22T13:46:58.124Z,23.50
2022-09-22T13:49:30.907Z,23.79
2022-09-22T13:52:12.587Z,24.49
2022-09-22T13:54:40.451Z,24.57
2022-09-22T13:57:19.649Z,25.03
2022-09-22T13:59:46.106Z,25.21
2022-09-22T14:02:13.909Z,25.70
2022-09-22T14:04:53.970Z,24.95
2022-09-22T14:07:22.145Z,24.92
2022-09-22T14:09:49.738Z,24.35
2022-09-22T14:12:17.250Z,25.01
2022-09-22T14:14:43.716Z,25.12
2022-09-22T14:17:25.461Z,24.62
2022-09-22T14:20:05.158Z,25.30
2022-09-22T14:22:40.160Z,24.66
2022-09-22T14:25:19.281Z,25.24
2022-09-22T14:27:55.301Z,24.65
2022-09-22T14:30:31.072Z,24.94
2022-09-22T14:33:00.886Z,25.02
2022-09-22T14:35:31.632Z,26.35
2022-09-22T14:38:08.940Z,26.48
2022-09-22T14:40:50.481Z,26.82
2022-09-22T14:43:27.498Z,26.51
2022-09-22T14:46:06.045Z,22.85
2022-09-22T14:48:38.369Z,20.78
2022-09-22T14:51:26.142Z,19.61
2022-09-22T14:53:57.517Z,19.15
2022-09-22T14:56:29.028Z,18.85
2022-09-22T14:58:59.181Z,18.66
2022-09-22T15:01:51.375Z,18.78
2022-09-22T15:04:24.009Z,18.69
2022-09-22T15:06:52.889Z,18.64
2022-09-22T15:09:26.452Z,18.48
2022-09-22T15:11:56.366Z,18.36
2022-09-22T15:14:42.207Z,18.19
2022-09-22T15:17:55.392Z,18.16
2022-09-22T15:20:42.907Z,18.09
2022-09-22T15:23:23.994Z,18.11
2022-09-22T15:25:51.015Z,18.15
2022-09-22T15:28:23.691Z,18.01
2022-09-22T15:30:52.612Z,17.92
2022-09-22T15:33:20.578Z,17.88
2022-09-22T15:36:08.610Z,17.88
2022-09-22T15:38:37.837Z,17.64
2022-09-22T15:41:04.329Z,17.57
2022-09-22T15:43:31.187Z,17.61
2022-09-22T15:46:03.786Z,17.62
2022-09-22T15:48:38.287Z,17.49
2022-09-22T15:51:22.947Z,17.41
2022-09-22T15:53:50.022Z,17.37
2022-09-22T15:56:20.857Z,17.26
2022-09-22T15:58:49.390Z,17.25
2022-09-22T16:01:17.960Z,17.22
2022-09-22T16:03:44.903Z,17.06
2022-09-22T16:06:15.527Z,16.85
2022-09-22T16:08:47.053Z,16.74
2022-09-22T16:11:15.967Z,16.67
2022-09-22T16:13:42.475Z,16.57
2022-09-22T16:16:10.343Z,16.54
2022-09-22T16:18:41.684Z,16.33
2022-09-22T16:21:26.600Z,16.26
2022-09-22T16:23:58.667Z,16.03
2022-09-22T16:26:29.384Z,15.83
2022-09-22T16:28:56.246Z,15.75
2022-09-22T16:31:22.984Z,15.72
2022-09-22T16:33:57.073Z,15.71
2022-09-22T16:36:26.074Z,15.60
2022-09-22T16:38:53.158Z,15.54
2022-09-22T16:41:21.080Z,15.44
2022-09-22T16:43:48.741Z,15.24
2022-09-22T16:46:31.203Z,15.12
2022-09-22T16:49:00.545Z,15.07
2022-09-22T16:51:28.167Z,15.01
2022-09-22T16:53:54.731Z,14.98
2022-09-22T16:56:26.393Z,14.83
2022-09-22T16:58:53.258Z,14.64
2022-09-22T17:01:20.412Z,14.48
2022-09-22T17:03:49.426Z,14.33
2022-09-22T17:06:18.394Z,14.21
2022-09-22T17:08:45.839Z,14.14
2022-09-22T17:11:16.413Z,13.98
2022-09-22T17:13:43.965Z,13.86
2022-09-22T17:16:25.036Z,13.74
2022-09-22T17:18:52.460Z,13.73
2022-09-22T17:21:21.911Z,13.58
2022-09-22T17:23:53.952Z,13.47
2022-09-22T17:26:21.071Z,13.42
2022-09-22T17:28:50.441Z,13.36
2022-09-22T17:31:16.867Z,13.34
2022-09-22T17:33:52.009Z,13.30
2022-09-22T17:36:20.573Z,13.19
2022-09-22T17:38:50.611Z,13.13
2022-09-22T17:41:19.766Z,13.03
2022-09-22T17:43:48.392Z,12.95
2022-09-22T17:46:17.705Z,12.88
2022-09-22T17:49:02.848Z,12.78
2022-09-22T17:51:51.792Z,12.68
2022-09-22T17:54:45.929Z,12.58
2022-09-22T17:57:15.140Z,12.48
2022-09-22T17:59:41.910Z,12.41
2022-09-22T18:02:14.294Z,12.35
2022-09-22T18:04:41.881Z,12.28
2022-09-22T18:07:11.077Z,12.20
2022-09-22T18:09:39.829Z,12.16
2022-09-22T18:12:09.899Z,12.14
2022-09-22T18:14:41.016Z,12.09
2022-09-22T18:17:09.056Z,12.05
2022-09-22T18:19:36.795Z,12.05
2022-09-22T18:22:06.111Z,12.03
2022-09-22T18:24:33.685Z,12.01
2022-09-22T18:27:02.780Z,11.96
2022-09-22T18:29:29.401Z,11.93
2022-09-22T18:31:58.824Z,11.87
2022-09-22T18:34:31.690Z,11.83
2022-09-22T18:37:02.347Z,11.79
2022-09-22T18:39:29.247Z,11.77
2022-09-22T18:41:55.598Z,11.82
2022-09-22T18:44:22.724Z,11.73
2022-09-22T18:46:49.297Z,11.65
2022-09-22T18:49:16.556Z,11.61
2022-09-22T18:51:49.037Z,11.58
2022-09-22T18:54:21.351Z,11.51
2022-09-22T18:56:49.529Z,11.46
2022-09-22T18:59:18.850Z,11.40
2022-09-22T19:01:46.558Z,11.39
2022-09-22T19:04:17.096Z,11.37
2022-09-22T19:07:03.064Z,11.33
2022-09-22T19:09:29.417Z,11.29
2022-09-22T19:11:55.944Z,11.28
2022-09-22T19:14:22.647Z,11.25
2022-09-22T19:16:49.086Z,11.19
2022-09-22T19:19:16.631Z,11.13
2022-09-22T19:21:43.292Z,11.12
2022-09-22T19:24:10.871Z,11.10
2022-09-22T19:26:43.993Z,11.05
2022-09-22T19:29:12.177Z,11.00
2022-09-22T19:31:40.996Z,10.98
2022-09-22T19:34:08.815Z,10.92
2022-09-22T19:36:36.032Z,10.90
2022-09-22T19:39:02.997Z,10.88
2022-09-22T19:41:29.368Z,10.84
2022-09-22T19:43:56.653Z,10.82
2022-09-22T19:46:24.418Z,10.81
2022-09-22T19:48:51.147Z,10.81
2022-09-22T19:51:17.819Z,10.78
2022-09-22T19:53:44.261Z,10.75
2022-09-22T19:56:10.619Z,10.72
2022-09-22T19:58:37.456Z,10.68
2022-09-22T20:01:07.688Z,10.64
2022-09-22T20:03:34.289Z,10.63
2022-09-22T20:06:00.717Z,10.62
2022-09-22T20:08:27.374Z,10.63
2022-09-22T20:11:16.361Z,10.59
2022-09-22T20:14:01.100Z,10.56
2022-09-22T20:16:28.074Z,10.51
2022-09-22T20:18:54.980Z,10.53
2022-09-22T20:21:21.527Z,10.48
2022-09-22T20:23:47.910Z,10.48
2022-09-22T20:26:14.272Z,10.43
2022-09-22T20:28:41.421Z,10.39
2022-09-22T20:31:11.844Z,10.37
2022-09-22T20:33:38.837Z,10.32
2022-09-22T20:36:05.992Z,10.29
2022-09-22T20:38:36.753Z,10.25
2022-09-22T20:41:03.213Z,10.19
2022-09-22T20:43:29.768Z,10.16
2022-09-22T20:46:05.214Z,10.16
2022-09-22T20:48:33.110Z,10.14
2022-09-22T20:51:02.871Z,10.13
2022-09-22T20:53:32.878Z,10.07
2022-09-22T20:56:03.394Z,10.02
2022-09-22T20:58:32.801Z,10.02
2022-09-22T21:01:00.185Z,10.04
2022-09-22T21:03:26.661Z,10.08
2022-09-22T21:05:59.010Z,10.08
2022-09-22T21:08:43.972Z,10.06
2022-09-22T21:11:14.851Z,10.02
2022-09-22T21:13:41.821Z,9.99
2022-09-22T21:16:09.454Z,9.95
2022-09-22T21:18:37.352Z,9.92
2022-09-22T21:21:05.825Z,9.93
2022-09-22T21:23:32.947Z,9.91
2022-09-22T21:26:02.162Z,9.89
2022-09-22T21:28:30.059Z,9.88
2022-09-22T21:30:57.961Z,9.87
2022-09-22T21:33:26.203Z,9.86
2022-09-22T21:36:08.541Z,9.81
2022-09-22T21:38:36.628Z,9.79
2022-09-22T21:41:05.869Z,9.81
2022-09-22T21:43:32.794Z,9.78
2022-09-22T21:46:05.068Z,9.77
2022-09-22T21:48:36.115Z,9.77
2022-09-22T21:51:07.746Z,9.76
2022-09-22T21:53:36.325Z,9.73
2022-09-22T21:56:07.103Z,9.74
2022-09-22T21:58:40.033Z,9.72
2022-09-22T22:01:14.556Z,9.72
2022-09-22T22:03:44.861Z,9.75
2022-09-22T22:06:43.053Z,9.80
2022-09-22T22:09:12.308Z,9.77
2022-09-22T22:11:48.785Z,9.78
2022-09-22T22:14:18.443Z,9.81
2022-09-22T22:16:47.566Z,9.82
2022-09-22T22:19:17.617Z,9.81
2022-09-22T22:21:44.558Z,9.82
2022-09-22T22:24:28.430Z,9.86
2022-09-22T22:26:58.352Z,9.89
2022-09-22T22:29:26.499Z,9.91
2022-09-22T22:31:53.623Z,9.93
2022-09-22T22:34:22.388Z,9.90
2022-09-22T22:36:49.625Z,9.91
2022-09-22T22:39:16.532Z,9.90
2022-09-22T22:41:43.352Z,9.92
2022-09-22T22:44:10.132Z,9.90
2022-09-22T22:46:37.290Z,9.91
2022-09-22T22:49:04.834Z,9.89
2022-09-22T22:51:31.397Z,9.88
2022-09-22T22:53:57.773Z,9.90
2022-09-22T22:56:26.591Z,9.88
2022-09-22T22:58:53.800Z,9.84
2022-09-22T23:01:22.411Z,9.80
2022-09-22T23:04:07.596Z,9.77
2022-09-22T23:06:37.770Z,9.71
2022-09-22T23:09:06.743Z,9.69
2022-09-22T23:11:37.018Z,9.66
2022-09-22T23:14:06.986Z,9.69
2022-09-22T23:16:39.648Z,9.71
2022-09-22T23:19:08.606Z,9.73
2022-09-22T23:21:36.143Z,9.77
2022-09-22T23:24:03.740Z,9.77
2022-09-22T23:26:30.730Z,9.80
2022-09-22T23:29:01.369Z,9.80
2022-09-22T23:31:28.257Z,9.82
2022-09-22T23:33:54.996Z,9.81
2022-09-22T23:36:26.773Z,9.81
2022-09-22T23:38:55.079Z,9.86
2022-09-22T23:41:21.704Z,9.82
2022-09-22T23:43:48.147Z,9.80
2022-09-22T23:46:14.663Z,9.73
2022-09-22T23:48:41.386Z,9.70
2022-09-22T23:51:07.880Z,9.68
2022-09-22T23:53:35.935Z,9.67
2022-09-22T23:56:03.683Z,9.67
2022-09-22T23:58:30.634Z,9.64
